Time;durP1;ratioP1;P1;durP2;ratioP2;P2;SDS_P1;SDS_P2;PMS_P1;PMS_P2;Temp;Humidity;BMP_temperature;BMP_pressure;BME280_temperature;BME280_humidity;BME280_pressure;Samples;Min_cycle;Max_cycle;Signal;HPM_P1;HPM_P2
2023/01/17 00:02:00;;;;;;;;;;;;;;;26.21;48.47;95636.78;625879;226;66875;-68
2023/01/17 00:10:01;;;;;;;;;;;;;;;26.19;48.81;95628.27;625872;226;64718;-68
2023/01/17 00:12:30;;;;;;;;;;;;;;;26.18;47.54;95612.45;625944;226;65060;-69
2023/01/17 00:14:58;;;;;;;;;;;;;;;26.18;47.81;95617.83;625901;226;67097;-68
2023/01/17 00:17:27;;;;;;;;;;;;;;;26.17;48.15;95605.50;625915;226;66908;-68
2023/01/17 01:35:41;;;;;;;;;;;;;;;25.87;48.21;95576.12;624540;227;65053;-69
2023/01/17 01:38:09;;;;;;;;;;;;;;;25.87;48.71;95593.05;625563;226;65065;-69
2023/01/17 01:40:38;;;;;;;;;;;;;;;25.85;48.59;95546.85;626000;226;62995;-69
2023/01/17 01:43:05;;;;;;;;;;;;;;;25.84;48.50;95569.52;625896;225;64884;-69
2023/01/17 01:45:33;;;;;;;;;;;;;;;25.83;48.65;95557.16;625894;226;64883;-69
2023/01/17 01:48:05;;;;;;;;;;;;;;;25.83;48.99;95565.23;625937;226;62960;-69
2023/01/17 01:50:34;;;;;;;;;;;;;;;25.82;49.70;95566.34;625886;226;64822;-70
2023/01/17 01:53:02;;;;;;;;;;;;;;;25.82;50.89;95552.88;625743;226;64791;-69
2023/01/17 01:55:32;;;;;;;;;;;;;;;25.82;47.52;95601.32;625916;226;63091;-69
2023/01/17 01:58:01;;;;;;;;;;;;;;;25.82;49.48;95595.16;625929;226;64845;-70
2023/01/17 02:00:30;;;;;;;;;;;;;;;25.80;48.87;95592.02;625916;226;64355;-70
2023/01/17 02:02:59;;;;;;;;;;;;;;;25.81;50.58;95609.72;625932;226;65003;-70
2023/01/17 02:05:28;;;;;;;;;;;;;;;25.80;49.46;95624.30;625958;226;67012;-69
2023/01/17 02:08:02;;;;;;;;;;;;;;;25.78;50.04;95616.58;626032;226;64323;-69
2023/01/17 02:10:34;;;;;;;;;;;;;;;25.76;48.71;95621.51;625676;226;63046;-69
2023/01/17 02:13:02;;;;;;;;;;;;;;;25.77;48.43;95625.76;625678;226;64626;-69
2023/01/17 02:15:31;;;;;;;;;;;;;;;25.76;49.04;95632.27;625934;226;67090;-69
2023/01/17 02:18:00;;;;;;;;;;;;;;;25.75;50.21;95617.23;625930;226;62987;-69
2023/01/17 02:20:44;;;;;;;;;;;;;;;25.74;49.71;95612.98;625777;226;64523;-69
2023/01/17 02:23:32;;;;;;;;;;;;;;;25.74;49.47;95598.75;625988;226;66593;-70
2023/01/17 02:26:19;;;;;;;;;;;;;;;25.72;49.60;95591.00;625947;226;65334;-68
2023/01/17 02:28:51;;;;;;;;;;;;;;;25.71;48.83;95602.89;625969;226;66789;-69
2023/01/17 02:31:26;;;;;;;;;;;;;;;25.70;49.30;95582.50;625890;226;66947;-70
2023/01/17 02:33:55;;;;;;;;;;;;;;;25.68;49.78;95573.97;625795;226;65249;-69
2023/01/17 02:36:33;;;;;;;;;;;;;;;25.68;49.12;95576.66;625768;226;64530;-70
2023/01/17 02:39:11;;;;;;;;;;;;;;;25.67;49.80;95573.19;625933;225;72548;-70
2023/01/17 02:41:42;;;;;;;;;;;;;;;25.67;49.79;95558.92;625836;226;65130;-69
2023/01/17 02:44:10;;;;;;;;;;;;;;;25.66;48.81;95538.53;625929;226;67490;-69
2023/01/17 02:46:46;;;;;;;;;;;;;;;25.65;50.84;95526.22;625924;226;66990;-69
2023/01/17 02:49:14;;;;;;;;;;;;;;;25.64;49.74;95513.88;625708;225;62833;-69
2023/01/17 02:51:52;;;;;;;;;;;;;;;25.63;49.53;95518.47;625913;226;67188;-69
2023/01/17 02:54:21;;;;;;;;;;;;;;;25.63;48.72;95517.69;625756;226;64635;-70
2023/01/17 02:57:01;;;;;;;;;;;;;;;25.61;50.26;95526.09;625534;226;64895;-70
2023/01/17 02:59:30;;;;;;;;;;;;;;;25.61;50.51;95498.41;625925;226;67110;-69
2023/01/17 03:01:59;;;;;;;;;;;;;;;25.60;49.72;95518.37;625896;226;66913;-70
2023/01/17 03:04:31;;;;;;;;;;;;;;;25.59;49.49;95503.33;624854;226;64904;-70
2023/01/17 03:07:01;;;;;;;;;;;;;;;25.58;49.73;95523.30;623765;226;64815;-70
2023/01/17 03:09:29;;;;;;;;;;;;;;;25.58;50.09;95520.60;625665;226;64856;-70
2023/01/17 03:11:57;;;;;;;;;;;;;;;25.57;49.96;95508.28;625956;226;64934;-70
2023/01/17 03:14:25;;;;;;;;;;;;;;;25.56;49.82;95522.84;625826;226;67075;-70
2023/01/17 03:16:52;;;;;;;;;;;;;;;25.55;49.71;95510.52;625816;226;66909;-70
2023/01/17 03:19:20;;;;;;;;;;;;;;;25.54;49.77;95517.03;625444;226;62725;-70
2023/01/17 03:21:48;;;;;;;;;;;;;;;25.55;50.76;95515.91;625923;226;64847;-70
2023/01/17 03:24:16;;;;;;;;;;;;;;;25.53;50.52;95502.00;626006;226;67103;-70
2023/01/17 03:26:43;;;;;;;;;;;;;;;25.51;50.41;95488.91;625945;226;62964;-70
2023/01/17 03:29:11;;;;;;;;;;;;;;;25.50;51.28;95495.38;625887;226;66821;-70
2023/01/17 03:31:38;;;;;;;;;;;;;;;25.49;50.08;95506.49;625528;226;64854;-70
2023/01/17 03:34:06;;;;;;;;;;;;;;;25.48;50.10;95489.55;619288;226;62712;-70
2023/01/17 03:36:33;;;;;;;;;;;;;;;25.48;49.78;95462.66;618617;229;64437;-70
2023/01/17 03:39:01;;;;;;;;;;;;;;;25.46;49.64;95465.70;614276;230;64609;-70
2023/01/17 03:41:29;;;;;;;;;;;;;;;25.46;50.32;95462.23;615320;230;65086;-70
2023/01/17 03:43:56;;;;;;;;;;;;;;;25.46;50.58;95463.00;615402;230;66750;-70
2023/01/17 03:46:25;;;;;;;;;;;;;;;25.44;48.64;95477.91;615400;230;66620;-70
2023/01/17 03:48:52;;;;;;;;;;;;;;;25.44;50.86;95464.46;615496;230;65044;-70
2023/01/17 03:51:20;;;;;;;;;;;;;;;25.43;51.24;95455.62;615421;230;66544;-70
2023/01/17 03:53:48;;;;;;;;;;;;;;;25.42;50.22;95462.09;615438;230;66668;-70
2023/01/17 03:56:16;;;;;;;;;;;;;;;25.42;51.36;95443.27;615374;230;62725;-70
2023/01/17 03:58:44;;;;;;;;;;;;;;;25.39;50.29;95417.05;615436;230;64887;-70
2023/01/17 04:01:11;;;;;;;;;;;;;;;25.40;50.86;95425.91;615483;230;66512;-70
2023/01/17 04:03:39;;;;;;;;;;;;;;;25.38;51.68;95426.26;615420;230;62777;-70
2023/01/17 04:06:06;;;;;;;;;;;;;;;25.38;50.06;95442.39;615420;230;64332;-70
2023/01/17 04:08:34;;;;;;;;;;;;;;;25.37;50.34;95427.39;615424;230;64548;-70
2023/01/17 04:11:01;;;;;;;;;;;;;;;25.36;49.42;95417.73;615426;230;62756;-70
2023/01/17 04:13:29;;;;;;;;;;;;;;;25.36;49.96;95420.42;615400;230;64609;-70
2023/01/17 04:15:56;;;;;;;;;;;;;;;25.34;50.98;95419.19;615462;230;64624;-70
2023/01/17 04:18:24;;;;;;;;;;;;;;;25.33;50.88;95413.03;615411;230;64975;-70
2023/01/17 04:20:51;;;;;;;;;;;;;;;25.33;50.39;95409.57;615385;230;66729;-70
2023/01/17 04:23:19;;;;;;;;;;;;;;;25.32;49.99;95411.48;615421;230;66624;-70
2023/01/17 04:25:46;;;;;;;;;;;;;;;25.32;49.78;95410.67;615415;230;64953;-70
2023/01/17 04:28:14;;;;;;;;;;;;;;;25.31;50.98;95403.73;615418;230;68011;-70
2023/01/17 04:30:41;;;;;;;;;;;;;;;25.29;51.28;95387.16;615461;230;66670;-70
2023/01/17 04:33:09;;;;;;;;;;;;;;;25.29;50.99;95390.65;615408;230;64891;-70
2023/01/17 04:35:36;;;;;;;;;;;;;;;25.28;49.97;95381.00;615409;230;66734;-70
2023/01/17 04:38:04;;;;;;;;;;;;;;;25.26;50.15;95402.05;617744;229;66348;-70
2023/01/17 04:40:31;;;;;;;;;;;;;;;25.26;49.94;95396.67;618850;229;64929;-70
2023/01/17 04:42:58;;;;;;;;;;;;;;;25.26;50.86;95399.36;618829;229;66766;-70
2023/01/17 04:45:26;;;;;;;;;;;;;;;25.24;49.53;95398.94;618792;229;64883;-70
2023/01/17 04:47:53;;;;;;;;;;;;;;;25.24;49.97;95405.09;618847;229;62739;-70
2023/01/17 04:50:21;;;;;;;;;;;;;;;25.24;51.30;95396.25;618828;229;64505;-70
2023/01/17 04:52:48;;;;;;;;;;;;;;;25.23;52.06;95408.11;618877;227;64549;-70
2023/01/17 04:55:16;;;;;;;;;;;;;;;25.21;49.80;95407.69;618802;229;62660;-70
2023/01/17 04:57:43;;;;;;;;;;;;;;;25.21;49.80;95399.61;618824;229;64715;-70
2023/01/17 05:00:11;;;;;;;;;;;;;;;25.19;50.75;95391.09;618828;229;66781;-70
2023/01/17 05:02:39;;;;;;;;;;;;;;;25.18;50.35;95406.45;618846;229;65204;-70
2023/01/17 05:05:07;;;;;;;;;;;;;;;25.17;52.26;95399.48;618879;229;66553;-70
2023/01/17 05:07:34;;;;;;;;;;;;;;;25.16;51.34;95435.56;618780;229;66836;-70
2023/01/17 05:10:03;;;;;;;;;;;;;;;25.16;52.17;95424.03;618820;229;62692;-70
2023/01/17 05:12:30;;;;;;;;;;;;;;;25.15;51.20;95427.82;618819;229;67089;-70
2023/01/17 05:14:58;;;;;;;;;;;;;;;25.15;51.31;95444.73;618818;229;66589;-70
2023/01/17 05:17:25;;;;;;;;;;;;;;;25.14;50.37;95432.39;618888;229;65001;-70
2023/01/17 05:19:53;;;;;;;;;;;;;;;25.13;50.45;95457.71;618880;229;64332;-70
2023/01/17 05:22:22;;;;;;;;;;;;;;;25.12;50.92;95453.44;618813;229;48051;-70
2023/01/17 05:24:50;;;;;;;;;;;;;;;25.12;52.69;95444.59;618829;229;64867;-70
2023/01/17 05:27:17;;;;;;;;;;;;;;;25.11;52.15;95473.38;618841;229;66729;-70
2023/01/17 05:29:45;;;;;;;;;;;;;;;25.11;51.57;95464.55;618829;229;66764;-70
2023/01/17 05:32:12;;;;;;;;;;;;;;;25.10;49.75;95465.64;618880;229;64904;-70
2023/01/17 05:34:39;;;;;;;;;;;;;;;25.09;52.54;95494.43;618769;229;64286;-70
2023/01/17 05:37:07;;;;;;;;;;;;;;;25.09;52.80;95475.61;618781;229;64608;-70
2023/01/17 05:39:34;;;;;;;;;;;;;;;25.08;50.02;95446.40;618839;229;62662;-70
2023/01/17 05:42:02;;;;;;;;;;;;;;;25.08;49.94;95465.22;618807;229;64583;-69
2023/01/17 05:44:29;;;;;;;;;;;;;;;25.07;52.07;95477.06;618883;229;64519;-70
2023/01/17 05:46:57;;;;;;;;;;;;;;;25.07;51.17;95434.06;618831;229;64669;-70
2023/01/17 05:49:24;;;;;;;;;;;;;;;25.05;52.80;95439.01;618772;229;66748;-70
2023/01/17 05:51:52;;;;;;;;;;;;;;;25.07;53.07;95480.53;618861;229;66399;-70
2023/01/17 05:54:19;;;;;;;;;;;;;;;25.05;52.35;95453.23;618836;229;64975;-70
2023/01/17 05:56:47;;;;;;;;;;;;;;;25.03;50.48;95437.42;618821;229;66781;-69
2023/01/17 05:59:14;;;;;;;;;;;;;;;25.05;49.60;95460.52;618831;229;66977;-69
2023/01/17 06:01:42;;;;;;;;;;;;;;;25.05;50.77;95463.98;618806;229;64945;-69
2023/01/17 06:04:09;;;;;;;;;;;;;;;25.03;50.40;95468.89;618796;229;66945;-69
2023/01/17 06:06:36;;;;;;;;;;;;;;;25.02;51.96;95462.73;618835;229;66790;-69
2023/01/17 06:09:04;;;;;;;;;;;;;;;25.03;50.19;95469.67;618887;229;64919;-69
2023/01/17 06:11:31;;;;;;;;;;;;;;;25.03;49.69;95466.20;618813;227;66787;-69
2023/01/17 06:13:59;;;;;;;;;;;;;;;25.03;50.62;95491.17;618846;229;64966;-69
2023/01/17 06:16:26;;;;;;;;;;;;;;;25.03;50.80;95499.23;618840;229;65066;-69
2023/01/17 06:18:54;;;;;;;;;;;;;;;25.04;51.36;95491.95;618839;229;66370;-69
2023/01/17 06:21:21;;;;;;;;;;;;;;;25.03;50.60;95485.80;618918;229;66637;-69
2023/01/17 06:23:48;;;;;;;;;;;;;;;25.02;50.32;95486.93;618815;229;62980;-69
2023/01/17 06:26:16;;;;;;;;;;;;;;;25.03;50.90;95491.17;618843;229;64718;-69
2023/01/17 06:28:44;;;;;;;;;;;;;;;25.03;50.76;95522.65;618857;229;66555;-69
2023/01/17 06:31:11;;;;;;;;;;;;;;;25.02;48.70;95508.43;618816;229;65226;-69
2023/01/17 06:33:38;;;;;;;;;;;;;;;25.03;49.04;95506.52;618863;229;66682;-69
2023/01/17 06:36:06;;;;;;;;;;;;;;;25.02;50.37;95497.68;618860;229;66551;-69
2023/01/17 06:38:34;;;;;;;;;;;;;;;25.02;49.62;95515.72;615802;229;65124;-68
2023/01/17 06:41:03;;;;;;;;;;;;;;;25.00;49.45;95518.72;615458;230;66786;-68
2023/01/17 06:43:32;;;;;;;;;;;;;;;25.02;49.59;95527.24;615185;230;66865;-69
2023/01/17 06:46:00;;;;;;;;;;;;;;;25.03;51.88;95511.90;615435;230;62904;-69
2023/01/17 06:48:28;;;;;;;;;;;;;;;25.01;50.00;95498.78;615451;230;64669;-69
2023/01/17 06:50:56;;;;;;;;;;;;;;;25.01;50.25;95498.78;615456;230;64669;-69
2023/01/17 06:53:24;;;;;;;;;;;;;;;25.01;51.89;95493.41;615428;230;65143;-69
2023/01/17 06:55:53;;;;;;;;;;;;;;;25.02;50.02;95500.37;615387;230;66760;-69
2023/01/17 06:58:20;;;;;;;;;;;;;;;25.02;51.65;95488.84;615428;230;68711;-69
2023/01/17 07:00:48;;;;;;;;;;;;;;;25.02;50.72;95502.27;615470;230;64935;-69
2023/01/17 07:03:17;;;;;;;;;;;;;;;25.01;51.98;95485.34;614735;228;66764;-67
2023/01/17 07:05:45;;;;;;;;;;;;;;;25.02;49.04;95515.72;615377;228;64105;-67
2023/01/17 07:08:12;;;;;;;;;;;;;;;25.02;52.19;95513.80;615734;230;62895;-67
2023/01/17 07:10:40;;;;;;;;;;;;;;;25.01;50.56;95506.84;615598;230;64694;-65
2023/01/17 07:13:08;;;;;;;;;;;;;;;25.02;50.95;95531.84;615716;230;67114;-66
2023/01/17 07:15:35;;;;;;;;;;;;;;;24.98;49.70;95515.58;615718;230;65056;-66
2023/01/17 07:18:03;;;;;;;;;;;;;;;25.02;47.91;95521.87;615687;230;66990;-66
2023/01/17 07:20:31;;;;;;;;;;;;;;;25.02;49.36;95546.06;615736;230;66856;-66
2023/01/17 07:22:59;;;;;;;;;;;;;;;25.05;49.80;95559.95;615742;230;62913;-66
2023/01/17 07:25:26;;;;;;;;;;;;;;;25.03;49.49;95566.43;615724;230;65465;-66
2023/01/17 07:27:56;;;;;;;;;;;;;;;25.03;49.06;95569.12;615756;230;64935;-65
2023/01/17 07:30:24;;;;;;;;;;;;;;;25.04;49.92;95577.96;615725;230;65010;-65
2023/01/17 07:32:52;;;;;;;;;;;;;;;25.04;49.89;95577.96;615660;230;64946;-67
2023/01/17 07:35:20;;;;;;;;;;;;;;;25.03;48.93;95569.12;615746;230;67124;-66
2023/01/17 07:37:49;;;;;;;;;;;;;;;25.05;50.45;95576.86;617371;229;65111;-66
2023/01/17 07:40:17;;;;;;;;;;;;;;;25.06;50.62;95580.33;618510;228;65327;-68
2023/01/17 07:42:45;;;;;;;;;;;;;;;25.06;51.38;95553.45;618777;229;66832;-65
2023/01/17 07:45:13;;;;;;;;;;;;;;;25.07;51.86;95576.52;618740;229;65013;-67
2023/01/17 07:47:41;;;;;;;;;;;;;;;25.06;50.21;95578.42;618693;229;64471;-66
2023/01/17 07:50:09;;;;;;;;;;;;;;;25.05;48.52;95576.08;618685;229;64896;-66
2023/01/17 07:52:36;;;;;;;;;;;;;;;25.04;49.19;95594.09;618811;229;65018;-68
2023/01/17 07:55:05;;;;;;;;;;;;;;;25.04;48.86;95580.65;618736;229;64998;-67
2023/01/17 07:57:32;;;;;;;;;;;;;;;25.03;49.38;95590.63;618752;229;67033;-67
2023/01/17 08:00:00;;;;;;;;;;;;;;;25.05;49.71;95592.21;618701;229;65010;-66
2023/01/17 08:02:29;;;;;;;;;;;;;;;25.03;48.14;95604.06;618679;229;67255;-67
2023/01/17 08:04:56;;;;;;;;;;;;;;;25.06;48.69;95601.83;618733;229;67028;-66
2023/01/17 08:07:24;;;;;;;;;;;;;;;25.05;50.39;95624.46;618693;229;62877;-66
2023/01/17 08:09:55;;;;;;;;;;;;;;;25.04;48.43;95615.59;618748;229;64989;-66
2023/01/17 08:12:24;;;;;;;;;;;;;;;25.05;48.48;95624.46;618738;229;67077;-66
2023/01/17 08:14:51;;;;;;;;;;;;;;;25.05;48.33;95616.40;618721;229;65268;-66
2023/01/17 08:17:20;;;;;;;;;;;;;;;25.04;49.69;95631.72;618762;229;67365;-67
2023/01/17 08:19:51;;;;;;;;;;;;;;;25.03;49.10;95628.25;618793;229;66814;-67
2023/01/17 08:22:22;;;;;;;;;;;;;;;25.03;48.81;95639.00;618699;229;62950;-65
2023/01/17 08:24:49;;;;;;;;;;;;;;;25.03;48.94;95630.94;618767;229;65081;-65
2023/01/17 08:27:17;;;;;;;;;;;;;;;25.04;49.69;95639.78;618780;229;65381;-68
2023/01/17 08:29:47;;;;;;;;;;;;;;;25.06;49.61;95634.09;618681;229;62909;-65
2023/01/17 08:32:14;;;;;;;;;;;;;;;25.05;48.91;95633.31;618792;229;67253;-68
2023/01/17 08:34:42;;;;;;;;;;;;;;;25.06;50.43;95647.53;618788;229;67339;-65
2023/01/17 08:37:09;;;;;;;;;;;;;;;25.06;50.02;95663.66;618671;229;64824;-68
2023/01/17 08:39:37;;;;;;;;;;;;;;;25.07;49.47;95662.53;618798;229;64795;-65
2023/01/17 08:42:04;;;;;;;;;;;;;;;25.07;48.59;95675.97;618778;229;66938;-67
2023/01/17 08:44:32;;;;;;;;;;;;;;;25.07;49.77;95667.91;618703;229;65018;-66
2023/01/17 08:47:00;;;;;;;;;;;;;;;25.08;48.15;95664.91;618815;229;66511;-67
2023/01/17 08:49:28;;;;;;;;;;;;;;;25.11;46.74;95660.77;618750;229;64963;-66
2023/01/17 08:51:56;;;;;;;;;;;;;;;25.11;50.69;95650.02;618706;229;65142;-66
2023/01/17 08:54:23;;;;;;;;;;;;;;;25.10;49.91;95646.55;618755;229;67599;-66
2023/01/17 08:56:51;;;;;;;;;;;;;;;25.11;49.48;95645.42;618656;229;64872;-67
2023/01/17 08:59:19;;;;;;;;;;;;;;;25.11;49.00;95647.33;618785;229;65125;-65
2023/01/17 09:01:46;;;;;;;;;;;;;;;25.13;50.59;95645.10;618760;229;64845;-65
2023/01/17 09:04:14;;;;;;;;;;;;;;;25.15;51.97;95659.01;618633;229;65811;-65
2023/01/17 09:06:46;;;;;;;;;;;;;;;25.15;52.97;95659.78;618749;229;63810;-66
2023/01/17 09:09:15;;;;;;;;;;;;;;;25.17;53.71;95671.00;618765;229;65012;-65
2023/01/17 09:11:42;;;;;;;;;;;;;;;25.18;52.85;95663.72;618753;229;67023;-64
2023/01/17 09:14:12;;;;;;;;;;;;;;;25.18;52.94;95675.28;618744;229;65069;-64
2023/01/17 09:16:39;;;;;;;;;;;;;;;25.19;52.54;95676.84;618757;229;67243;-66
2023/01/17 09:19:07;;;;;;;;;;;;;;;25.20;50.46;95677.63;618700;229;67053;-65
2023/01/17 09:21:34;;;;;;;;;;;;;;;25.23;51.97;95676.96;618772;229;65185;-65
2023/01/17 09:24:01;;;;;;;;;;;;;;;25.23;51.91;95688.49;618779;229;64994;-65
2023/01/17 09:26:29;;;;;;;;;;;;;;;25.23;50.85;95675.05;618643;229;64950;-68
2023/01/17 09:28:57;;;;;;;;;;;;;;;25.23;50.87;95656.23;618772;229;62901;-66
2023/01/17 09:31:25;;;;;;;;;;;;;;;25.24;49.89;95660.52;618785;229;64890;-66
2023/01/17 09:33:54;;;;;;;;;;;;;;;25.24;48.38;95660.52;618731;229;67048;-66
2023/01/17 09:36:21;;;;;;;;;;;;;;;25.25;49.01;95674.73;618730;229;65067;-68
2023/01/17 09:38:49;;;;;;;;;;;;;;;25.25;48.68;95685.49;618791;229;67225;-66
2023/01/17 09:41:20;;;;;;;;;;;;;;;25.25;48.33;95674.73;618612;228;65231;-66
2023/01/17 09:43:51;;;;;;;;;;;;;;;25.25;48.49;95666.67;618750;229;45210;-66
2023/01/17 09:46:23;;;;;;;;;;;;;;;25.25;49.57;95667.45;618533;228;67345;-66
2023/01/17 09:48:52;;;;;;;;;;;;;;;25.25;48.09;95664.76;618480;228;67052;-67
2023/01/17 09:51:21;;;;;;;;;;;;;;;25.25;48.49;95664.76;618809;229;64810;-67
2023/01/17 09:53:50;;;;;;;;;;;;;;;25.25;48.22;95653.23;618726;229;67189;-67
2023/01/17 09:56:19;;;;;;;;;;;;;;;25.26;47.14;95652.09;618663;229;66849;-66
2023/01/17 09:59:03;;;;;;;;;;;;;;;25.27;48.91;95651.00;618643;228;65085;-67
2023/01/17 10:01:38;;;;;;;;;;;;;;;25.27;49.66;95651.00;618724;228;66868;-66
2023/01/17 10:04:13;;;;;;;;;;;;;;;25.26;48.00;95654.78;618681;228;67122;-67
2023/01/17 10:06:54;;;;;;;;;;;;;;;25.27;48.30;95658.28;618792;229;65151;-67
2023/01/17 10:09:41;;;;;;;;;;;;;;;25.27;49.79;95655.59;618779;228;67366;-66
2023/01/17 10:12:17;;;;;;;;;;;;;;;25.25;48.48;95654.00;618726;228;67119;-67
2023/01/17 10:15:05;;;;;;;;;;;;;;;25.27;49.66;95658.28;618783;228;63013;-65
2023/01/17 10:17:51;;;;;;;;;;;;;;;25.27;48.88;95652.91;618794;228;67090;-67
2023/01/17 10:20:20;;;;;;;;;;;;;;;25.27;47.65;95642.94;618681;229;64984;-65
2023/01/17 10:22:58;;;;;;;;;;;;;;;25.30;49.65;95636.11;618706;228;65251;-65
2023/01/17 10:25:31;;;;;;;;;;;;;;;25.29;48.31;95643.39;618787;229;66907;-65
2023/01/17 10:28:06;;;;;;;;;;;;;;;25.33;48.87;95638.91;618796;228;69193;-70
2023/01/17 10:30:41;;;;;;;;;;;;;;;25.34;49.57;95637.78;618706;228;62857;-65
2023/01/17 10:33:12;;;;;;;;;;;;;;;25.36;49.73;95632.08;618744;229;67647;-70
2023/01/17 10:35:40;;;;;;;;;;;;;;;25.36;50.04;95627.48;618742;228;66841;-68
2023/01/17 10:38:09;;;;;;;;;;;;;;;25.38;51.06;95611.81;619281;228;65067;-67
2023/01/17 10:40:41;;;;;;;;;;;;;;;25.40;50.88;95638.35;619583;227;66880;-67
2023/01/17 10:43:28;;;;;;;;;;;;;;;25.41;50.71;95621.90;619634;229;64555;-67
2023/01/17 10:45:56;;;;;;;;;;;;;;;25.42;50.64;95619.98;619621;227;65313;-70
2023/01/17 10:48:25;;;;;;;;;;;;;;;25.42;50.16;95615.39;619555;229;66878;-66
2023/01/17 10:50:57;;;;;;;;;;;;;;;25.43;42.04;95616.98;619607;229;66760;-67
2023/01/17 10:53:29;;;;;;;;;;;;;;;25.46;46.39;95615.53;619526;227;65065;-68
2023/01/17 10:55:57;;;;;;;;;;;;;;;25.48;47.25;95615.95;619666;227;67223;-68
2023/01/17 10:58:25;;;;;;;;;;;;;;;25.52;47.10;95613.41;619524;229;65371;-67
2023/01/17 11:00:54;;;;;;;;;;;;;;;25.51;48.76;95609.94;619581;229;62882;-67
2023/01/17 11:03:23;;;;;;;;;;;;;;;25.51;49.50;95592.98;619459;228;67170;-68
2023/01/17 11:06:01;;;;;;;;;;;;;;;25.52;49.55;95589.98;619507;229;67073;-68
2023/01/17 11:08:30;;;;;;;;;;;;;;;25.54;49.11;95586.97;615704;228;64923;-67
2023/01/17 11:10:59;;;;;;;;;;;;;;;25.58;47.74;95587.86;619869;227;64912;-68
2023/01/17 11:13:31;;;;;;;;;;;;;;;25.60;47.84;95597.16;619590;228;64860;-66
2023/01/17 11:16:00;;;;;;;;;;;;;;;25.59;48.60;95600.98;619613;229;62979;-67
2023/01/17 11:18:29;;;;;;;;;;;;;;;25.61;48.15;95604.10;619544;229;66870;-67
2023/01/17 11:21:10;;;;;;;;;;;;;;;25.63;48.43;95619.92;619513;228;67033;-67
2023/01/17 11:23:38;;;;;;;;;;;;;;;25.63;47.82;95623.39;619535;227;65032;-67
2023/01/17 11:26:07;;;;;;;;;;;;;;;25.63;48.27;95625.30;619596;229;67397;-67
2023/01/17 11:28:36;;;;;;;;;;;;;;;25.63;48.19;95630.68;619541;229;67043;-67
2023/01/17 11:31:08;;;;;;;;;;;;;;;25.64;47.94;95624.95;619592;229;64942;-67
2023/01/17 11:33:46;;;;;;;;;;;;;;;25.67;48.89;95631.57;618259;228;67278;-65
2023/01/17 11:36:18;;;;;;;;;;;;;;;25.65;47.75;95623.06;619608;229;67171;-66
2023/01/17 11:38:56;;;;;;;;;;;;;;;25.66;47.78;95616.55;618761;229;63137;-65
2023/01/17 11:41:24;;;;;;;;;;;;;;;25.68;47.45;95617.02;618695;229;67191;-64
2023/01/17 11:43:53;;;;;;;;;;;;;;;25.69;47.23;95613.97;618791;229;66987;-66
2023/01/17 11:46:21;;;;;;;;;;;;;;;25.71;47.87;95616.34;618713;229;62956;-66
2023/01/17 11:48:50;;;;;;;;;;;;;;;25.72;47.72;95617.91;618659;229;65008;-65
2023/01/17 11:51:19;;;;;;;;;;;;;;;25.73;47.28;95611.42;618549;228;64908;-65
2023/01/17 11:53:47;;;;;;;;;;;;;;;25.75;48.27;95611.84;618724;229;63669;-65
2023/01/17 11:56:22;;;;;;;;;;;;;;;25.77;48.09;95606.92;618726;229;64863;-65
2023/01/17 11:58:50;;;;;;;;;;;;;;;25.76;47.23;95602.67;618779;228;67231;-68
2023/01/17 12:01:19;;;;;;;;;;;;;;;25.77;47.46;95598.84;618745;229;64960;-66
2023/01/17 12:03:51;;;;;;;;;;;;;;;25.77;47.81;95593.47;618639;229;64835;-66
2023/01/17 12:06:20;;;;;;;;;;;;;;;25.79;46.57;95585.08;618779;228;64249;-67
2023/01/17 12:08:58;;;;;;;;;;;;;;;25.79;47.02;95580.47;618703;228;65112;-66
2023/01/17 12:11:28;;;;;;;;;;;;;;;25.80;47.20;95582.03;618721;229;67166;-66
2023/01/17 12:14:00;;;;;;;;;;;;;;;25.81;48.06;95582.81;618695;229;67296;-66
2023/01/17 12:16:38;;;;;;;;;;;;;;;25.82;48.22;95579.80;618639;229;63060;-65
2023/01/17 12:19:20;;;;;;;;;;;;;;;25.82;47.03;95585.17;618682;228;64973;-66
2023/01/17 12:22:01;;;;;;;;;;;;;;;25.83;47.64;95586.77;618736;229;64888;-65
2023/01/17 12:24:47;;;;;;;;;;;;;;;25.84;47.20;95585.66;618531;228;65197;-64
2023/01/17 12:27:16;;;;;;;;;;;;;;;25.84;47.28;95577.59;618657;229;67448;-67
2023/01/17 12:29:51;;;;;;;;;;;;;;;25.86;45.45;95572.66;618775;229;67191;-66
2023/01/17 12:32:20;;;;;;;;;;;;;;;25.89;46.12;95569.29;618692;228;65215;-65
2023/01/17 12:34:49;;;;;;;;;;;;;;;25.89;46.94;95558.52;618738;229;64702;-65
2023/01/17 12:37:34;;;;;;;;;;;;;;;25.87;46.78;95558.07;618691;229;64864;-62
2023/01/17 12:40:06;;;;;;;;;;;;;;;25.88;43.58;95543.48;618625;229;66071;-66
2023/01/17 12:42:42;;;;;;;;;;;;;;;25.87;45.90;95528.47;618684;226;67336;-69
2023/01/17 12:45:20;;;;;;;;;;;;;;;25.85;46.71;95530.70;617704;229;67159;-67
2023/01/17 12:47:49;;;;;;;;;;;;;;;25.88;47.09;95537.31;618659;229;65306;-64
2023/01/17 12:50:30;;;;;;;;;;;;;;;25.83;47.17;95535.63;618601;229;67337;-65
2023/01/17 12:53:05;;;;;;;;;;;;;;;25.83;46.67;95538.32;618296;226;67166;-68
2023/01/17 12:55:34;;;;;;;;;;;;;;;25.83;46.40;95538.32;618507;229;65232;-66
2023/01/17 12:58:03;;;;;;;;;;;;;;;25.83;47.12;95537.52;618683;229;67329;-67
2023/01/17 13:00:32;;;;;;;;;;;;;;;25.81;47.03;95532.48;618622;229;64706;-67
2023/01/17 13:03:07;;;;;;;;;;;;;;;25.83;46.73;95532.13;618808;229;63027;-64
2023/01/17 13:05:40;;;;;;;;;;;;;;;25.83;46.64;95524.87;618644;228;67169;-67
2023/01/17 13:08:12;;;;;;;;;;;;;;;25.83;47.21;95527.56;618709;229;67110;-66
2023/01/17 13:10:42;;;;;;;;;;;;;;;25.82;46.72;95525.20;615017;229;65043;-66
2023/01/17 13:13:24;;;;;;;;;;;;;;;25.84;46.71;95526.45;618631;228;64988;-65
2023/01/17 13:15:59;;;;;;;;;;;;;;;25.83;46.87;95515.98;618743;229;66907;-66
2023/01/17 13:18:28;;;;;;;;;;;;;;;25.84;46.57;95534.53;618533;228;63042;-65
2023/01/17 13:21:06;;;;;;;;;;;;;;;25.83;46.76;95527.56;618732;229;67204;-66
2023/01/17 13:23:50;;;;;;;;;;;;;;;25.84;46.77;95537.22;618564;228;64735;-66
2023/01/17 13:26:19;;;;;;;;;;;;;;;25.85;47.58;95524.55;618478;228;65072;-66
2023/01/17 13:28:51;;;;;;;;;;;;;;;25.86;47.04;95526.91;617910;229;67283;-66
2023/01/17 13:31:37;;;;;;;;;;;;;;;25.87;46.77;95527.69;618763;229;67426;-66
2023/01/17 13:34:09;;;;;;;;;;;;;;;25.85;46.86;95527.23;618726;229;66009;-65
2023/01/17 13:36:44;;;;;;;;;;;;;;;25.87;46.82;95531.16;618603;227;67175;-65
2023/01/17 13:39:16;;;;;;;;;;;;;;;25.84;46.82;95545.30;617590;228;67086;-65
2023/01/17 13:41:54;;;;;;;;;;;;;;;25.85;47.20;95536.09;617600;229;64993;-65
2023/01/17 13:44:23;;;;;;;;;;;;;;;25.85;47.72;95530.70;617569;229;65032;-65
2023/01/17 13:47:03;;;;;;;;;;;;;;;25.86;46.56;95529.60;617751;227;64404;-65
2023/01/17 13:49:35;;;;;;;;;;;;;;;25.87;47.23;95523.09;624327;226;63855;-65
2023/01/17 13:52:06;;;;;;;;;;;;;;;25.87;47.88;95527.69;624752;227;66892;-68
2023/01/17 13:54:34;;;;;;;;;;;;;;;25.88;47.79;95513.88;621738;227;67037;-64
2023/01/17 13:57:19;;;;;;;;;;;;;;;25.88;47.01;95502.33;618241;227;65019;-66
2023/01/17 13:59:47;;;;;;;;;;;;;;;25.88;47.17;95511.19;621432;227;65059;-65
2023/01/17 14:02:35;;;;;;;;;;;;;;;25.89;47.43;95526.23;622922;227;66972;-64
2023/01/17 14:05:16;;;;;;;;;;;;;;;25.90;46.85;95517.02;624437;227;63150;-65
2023/01/17 14:07:46;;;;;;;;;;;;;;;25.91;47.47;95520.48;624748;227;67112;-64
2023/01/17 14:10:16;;;;;;;;;;;;;;;25.90;47.09;95525.09;624777;227;65131;-64
2023/01/17 14:12:44;;;;;;;;;;;;;;;25.90;47.78;95517.02;613297;226;63068;-64
2023/01/17 14:15:20;;;;;;;;;;;;;;;25.91;47.73;95518.58;624767;227;67739;-65
2023/01/17 14:17:49;;;;;;;;;;;;;;;25.94;47.67;95514.42;624668;227;67127;-65
2023/01/17 14:20:20;;;;;;;;;;;;;;;25.95;47.50;95504.47;624692;227;65041;-65
2023/01/17 14:22:49;;;;;;;;;;;;;;;25.96;47.31;95503.34;624716;227;65026;-65
2023/01/17 14:25:18;;;;;;;;;;;;;;;25.97;47.63;95488.74;624742;227;67091;-66